createdAt,value
2023-03-22T00:01:33.476Z,17.28
2023-03-22T00:04:01.539Z,17.18
2023-03-22T00:06:29.115Z,17.10
2023-03-22T00:08:57.056Z,17.34
2023-03-22T00:11:26.162Z,17.23
2023-03-22T00:13:55.211Z,17.25
2023-03-22T00:16:22.945Z,17.17
2023-03-22T00:18:51.230Z,17.20
2023-03-22T00:21:18.987Z,17.39
2023-03-22T00:23:46.947Z,16.99
2023-03-22T00:26:15.493Z,17.33
2023-03-22T00:28:43.839Z,16.92
2023-03-22T00:31:11.424Z,16.91
2023-03-22T00:33:39.376Z,17.05
2023-03-22T00:36:08.656Z,17.09
2023-03-22T00:38:44.092Z,17.18
2023-03-22T00:41:14.783Z,17.35
2023-03-22T00:43:43.220Z,16.87
2023-03-22T00:46:11.696Z,16.99
2023-03-22T00:48:39.813Z,17.09
2023-03-22T00:51:08.224Z,16.84
2023-03-22T00:53:37.647Z,16.96
2023-03-22T00:56:06.291Z,16.82
2023-03-22T00:58:44.745Z,16.61
2023-03-22T01:01:14.354Z,16.55
2023-03-22T01:03:43.229Z,16.69
2023-03-22T01:06:14.322Z,16.72
2023-03-22T01:08:42.820Z,17.00
2023-03-22T01:11:10.558Z,16.69
2023-03-22T01:13:38.976Z,16.57
2023-03-22T01:16:07.326Z,16.61
2023-03-22T01:18:36.196Z,16.56
2023-03-22T01:21:04.020Z,16.47
2023-03-22T01:23:33.695Z,16.59
2023-03-22T01:26:01.832Z,16.38
2023-03-22T01:28:30.425Z,16.37
2023-03-22T01:31:01.785Z,16.39
2023-03-22T01:33:30.128Z,16.53
2023-03-22T01:35:58.107Z,16.15
2023-03-22T01:38:26.690Z,16.21
2023-03-22T01:40:58.973Z,16.44
2023-03-22T01:43:29.481Z,16.40
2023-03-22T01:45:58.762Z,16.56
2023-03-22T01:48:50.466Z,16.30
2023-03-22T01:51:25.789Z,16.45
2023-03-22T01:54:09.775Z,16.14
2023-03-22T01:56:40.616Z,16.09
2023-03-22T01:59:14.730Z,15.99
2023-03-22T02:02:03.710Z,15.94
2023-03-22T02:04:34.555Z,15.96
2023-03-22T02:07:10.348Z,16.14
2023-03-22T02:09:42.784Z,16.08
2023-03-22T02:12:31.192Z,15.90
2023-03-22T02:15:26.824Z,16.14
2023-03-22T02:18:28.500Z,16.15
2023-03-22T02:21:17.320Z,16.17
2023-03-22T02:24:03.961Z,15.90
2023-03-22T02:26:51.063Z,16.00
2023-03-22T02:29:26.780Z,16.10
2023-03-22T02:32:20.031Z,16.07
2023-03-22T02:35:06.438Z,16.28
2023-03-22T02:37:34.860Z,15.72
2023-03-22T02:40:22.830Z,15.79
2023-03-22T02:43:00.803Z,15.76
2023-03-22T02:45:35.075Z,15.86
2023-03-22T02:48:06.951Z,15.83
2023-03-22T02:50:40.158Z,15.60
2023-03-22T02:53:16.911Z,15.62
2023-03-22T02:55:51.050Z,15.63
2023-03-22T02:58:48.450Z,15.67
2023-03-22T03:01:38.521Z,15.62
2023-03-22T03:04:10.168Z,15.82
2023-03-22T03:06:41.234Z,15.78
2023-03-22T03:09:09.418Z,16.10
2023-03-22T03:11:37.500Z,15.94
2023-03-22T03:14:05.999Z,16.06
2023-03-22T03:16:37.362Z,15.74
2023-03-22T03:19:14.888Z,15.63
2023-03-22T03:22:01.200Z,15.56
2023-03-22T03:24:36.938Z,15.71
2023-03-22T03:27:08.742Z,15.84
2023-03-22T03:30:02.327Z,15.84
2023-03-22T03:32:35.472Z,15.68
2023-03-22T03:35:11.366Z,15.58
2023-03-22T03:37:42.502Z,15.65
2023-03-22T03:40:17.791Z,15.50
2023-03-22T03:42:50.125Z,15.38
2023-03-22T03:45:19.067Z,15.78
2023-03-22T03:47:47.713Z,15.52
2023-03-22T03:50:16.831Z,15.46
2023-03-22T03:52:44.549Z,15.34
2023-03-22T03:55:12.532Z,15.72
2023-03-22T03:57:40.394Z,15.67
2023-03-22T04:00:09.515Z,15.51
2023-03-22T04:02:55.762Z,15.59
2023-03-22T04:05:46.619Z,15.64
2023-03-22T04:08:14.567Z,15.70
2023-03-22T04:10:43.036Z,15.76
2023-03-22T04:13:10.815Z,15.47
2023-03-22T04:15:38.994Z,15.24
2023-03-22T04:18:11.555Z,15.37
2023-03-22T04:20:42.092Z,15.29
2023-03-22T04:23:11.216Z,15.47
2023-03-22T04:25:40.031Z,15.28
2023-03-22T04:28:13.836Z,15.30
2023-03-22T04:30:45.866Z,15.21
2023-03-22T04:33:32.881Z,15.19
2023-03-22T04:36:22.266Z,15.24
2023-03-22T04:39:14.343Z,15.14
2023-03-22T04:41:47.991Z,14.98
2023-03-22T04:44:15.873Z,15.14
2023-03-22T04:46:49.795Z,15.07
2023-03-22T04:49:18.037Z,14.98
2023-03-22T04:51:46.460Z,15.00
2023-03-22T04:54:27.134Z,14.92
2023-03-22T04:56:55.125Z,14.98
2023-03-22T04:59:24.841Z,15.04
2023-03-22T05:01:53.188Z,15.04
2023-03-22T05:04:27.539Z,15.15
2023-03-22T05:07:02.956Z,15.14
2023-03-22T05:09:48.930Z,14.98
2023-03-22T05:12:18.435Z,14.97
2023-03-22T05:14:57.940Z,15.01
2023-03-22T05:17:31.945Z,14.88
2023-03-22T05:20:09.280Z,14.84
2023-03-22T05:22:41.111Z,14.88
2023-03-22T05:25:12.031Z,14.94
2023-03-22T05:27:44.571Z,15.12
2023-03-22T05:30:33.977Z,15.00
2023-03-22T05:33:12.952Z,15.08
2023-03-22T05:35:45.201Z,15.07
2023-03-22T05:38:13.291Z,15.13
2023-03-22T05:40:46.640Z,15.28
2023-03-22T05:43:15.047Z,15.41
2023-03-22T05:45:48.512Z,15.44
2023-03-22T05:48:36.687Z,15.34
2023-03-22T05:51:09.362Z,15.30
2023-03-22T05:53:37.859Z,15.22
2023-03-22T05:56:15.897Z,15.33
2023-03-22T05:58:47.466Z,15.67
2023-03-22T06:01:20.679Z,15.57
2023-03-22T06:03:48.969Z,15.70
2023-03-22T06:06:32.591Z,15.71
2023-03-22T06:09:16.888Z,15.64
2023-03-22T06:11:49.148Z,15.33
2023-03-22T06:14:17.879Z,15.34
2023-03-22T06:16:56.463Z,15.32
2023-03-22T06:19:25.799Z,15.43
2023-03-22T06:21:54.744Z,15.47
2023-03-22T06:24:25.898Z,15.39
2023-03-22T06:26:53.652Z,15.79
2023-03-22T06:29:21.775Z,15.69
2023-03-22T06:31:51.005Z,15.74
2023-03-22T06:34:19.559Z,15.59
2023-03-22T06:36:48.773Z,15.69
2023-03-22T06:39:25.822Z,16.08
2023-03-22T06:41:54.126Z,16.17
2023-03-22T06:44:22.940Z,16.40
2023-03-22T06:46:53.270Z,16.45
2023-03-22T06:49:59.981Z,16.57
2023-03-22T06:52:41.026Z,16.55
2023-03-22T06:55:09.660Z,16.87
2023-03-22T06:57:37.503Z,17.14
2023-03-22T07:00:05.915Z,17.33
2023-03-22T07:02:33.924Z,17.39
2023-03-22T07:05:16.724Z,17.36
2023-03-22T07:07:44.633Z,17.44
2023-03-22T07:10:12.827Z,17.62
2023-03-22T07:12:40.883Z,17.63
2023-03-22T07:15:13.583Z,17.48
2023-03-22T07:17:54.813Z,17.71
2023-03-22T07:20:23.043Z,17.89
2023-03-22T07:22:51.707Z,18.01
2023-03-22T07:25:22.226Z,18.20
2023-03-22T07:27:57.198Z,18.50
2023-03-22T07:30:25.514Z,18.77
2023-03-22T07:32:53.667Z,18.82
2023-03-22T07:35:21.798Z,19.04
2023-03-22T07:37:49.969Z,19.09
2023-03-22T07:40:24.443Z,19.38
2023-03-22T07:42:55.828Z,19.43
2023-03-22T07:45:51.152Z,19.63
2023-03-22T07:48:39.427Z,19.74
2023-03-22T07:51:26.163Z,20.04
2023-03-22T07:53:54.500Z,20.06
2023-03-22T07:56:22.988Z,20.03
2023-03-22T07:58:50.823Z,20.14
2023-03-22T08:01:19.328Z,20.25
2023-03-22T08:03:59.004Z,20.31
2023-03-22T08:06:37.474Z,19.78
2023-03-22T08:09:08.621Z,20.09
2023-03-22T08:11:36.943Z,19.88
2023-03-22T08:14:04.924Z,20.32
2023-03-22T08:16:35.700Z,20.11
2023-03-22T08:19:05.617Z,20.26
2023-03-22T08:21:37.363Z,20.38
2023-03-22T08:24:07.942Z,20.45
2023-03-22T08:27:08.227Z,20.80
2023-03-22T08:29:47.704Z,20.39
2023-03-22T08:32:16.844Z,20.54
2023-03-22T08:34:44.567Z,20.21
2023-03-22T08:37:13.164Z,20.49
2023-03-22T08:39:43.584Z,20.62
2023-03-22T08:42:32.777Z,20.56
2023-03-22T08:45:00.434Z,20.61
2023-03-22T08:47:30.488Z,20.58
2023-03-22T08:50:02.514Z,20.37
2023-03-22T08:52:56.722Z,20.64
2023-03-22T08:55:31.893Z,21.78
2023-03-22T08:58:16.689Z,21.25
2023-03-22T09:01:14.753Z,21.04
2023-03-22T09:03:53.670Z,21.44
2023-03-22T09:06:21.806Z,21.19
2023-03-22T09:08:52.359Z,21.45
2023-03-22T09:11:22.998Z,21.54
2023-03-22T09:13:51.559Z,21.43
2023-03-22T09:16:20.582Z,21.71
2023-03-22T09:18:49.326Z,21.68
2023-03-22T09:21:19.183Z,22.23
2023-03-22T09:23:52.369Z,21.87
2023-03-22T09:26:25.949Z,22.02
2023-03-22T09:28:55.592Z,22.59
2023-03-22T09:31:23.380Z,22.38
2023-03-22T09:34:02.935Z,22.25
2023-03-22T09:36:32.550Z,22.39
2023-03-22T09:39:01.148Z,21.88
2023-03-22T09:41:38.471Z,22.31
2023-03-22T09:44:08.469Z,21.90
2023-03-22T09:46:40.885Z,22.54
2023-03-22T09:49:18.270Z,23.11
2023-03-22T09:51:47.403Z,22.93
2023-03-22T09:54:19.868Z,23.29
2023-03-22T09:56:51.353Z,22.83
2023-03-22T09:59:30.898Z,22.87
2023-03-22T10:02:00.671Z,22.71
2023-03-22T10:04:28.986Z,22.71
2023-03-22T10:07:19.744Z,22.59
2023-03-22T10:10:02.106Z,23.03
2023-03-22T10:12:33.777Z,23.81
2023-03-22T10:15:14.285Z,23.51
2023-03-22T10:17:48.359Z,24.44
2023-03-22T10:20:19.342Z,24.00
2023-03-22T10:22:47.867Z,23.76
2023-03-22T10:25:18.551Z,23.77
2023-03-22T10:27:48.768Z,24.33
2023-03-22T10:30:21.113Z,24.31
2023-03-22T10:32:57.844Z,24.51
2023-03-22T10:35:26.894Z,24.06
2023-03-22T10:37:56.417Z,24.83
2023-03-22T10:40:29.243Z,23.52
2023-03-22T10:42:58.310Z,23.99
2023-03-22T10:45:26.799Z,23.42
2023-03-22T10:48:09.965Z,23.93
2023-03-22T10:50:43.413Z,24.00
2023-03-22T10:53:14.279Z,23.51
2023-03-22T10:55:43.679Z,23.52
2023-03-22T10:58:14.401Z,24.78
2023-03-22T11:00:45.355Z,24.21
2023-03-22T11:03:28.500Z,24.47
2023-03-22T11:06:00.569Z,26.60
2023-03-22T11:08:28.205Z,25.97
2023-03-22T11:10:59.639Z,25.07
2023-03-22T11:13:28.092Z,24.12
2023-03-22T11:16:02.437Z,24.18
2023-03-22T11:18:32.372Z,24.64
2023-03-22T11:21:21.512Z,24.81
2023-03-22T11:23:56.005Z,25.43
2023-03-22T11:26:28.821Z,25.97
2023-03-22T11:29:02.783Z,24.61
2023-03-22T11:31:48.720Z,25.68
2023-03-22T11:34:18.208Z,24.92
2023-03-22T11:36:51.549Z,25.05
2023-03-22T11:39:19.206Z,25.74
2023-03-22T11:41:47.359Z,26.39
2023-03-22T11:44:19.271Z,27.12
2023-03-22T11:46:56.006Z,26.78
2023-03-22T11:49:30.213Z,27.42
2023-03-22T11:52:07.281Z,26.74
2023-03-22T11:54:35.988Z,26.58
2023-03-22T11:57:05.038Z,26.55
2023-03-22T11:59:40.437Z,27.46
2023-03-22T12:02:23.902Z,26.44
2023-03-22T12:04:54.315Z,26.35
2023-03-22T12:07:24.717Z,25.85
2023-03-22T12:10:12.671Z,26.40
2023-03-22T12:12:44.661Z,26.40
2023-03-22T12:15:16.280Z,25.91
2023-03-22T12:17:48.997Z,26.45
2023-03-22T12:20:21.283Z,25.91
2023-03-22T12:22:52.984Z,25.75
2023-03-22T12:25:22.779Z,25.96
2023-03-22T12:27:54.243Z,26.54
2023-03-22T12:30:27.122Z,27.21
2023-03-22T12:33:06.966Z,25.93
2023-03-22T12:35:37.120Z,26.18
2023-03-22T12:38:11.244Z,27.41
2023-03-22T12:40:41.174Z,26.50
2023-03-22T12:43:24.201Z,26.67
2023-03-22T12:45:55.161Z,26.28
2023-03-22T12:48:32.133Z,26.45
2023-03-22T12:51:08.019Z,27.61
2023-03-22T12:53:42.684Z,28.85
2023-03-22T12:56:16.213Z,28.13
2023-03-22T12:58:48.263Z,27.54
2023-03-22T13:01:29.087Z,27.45
2023-03-22T13:03:59.695Z,27.18
2023-03-22T13:06:56.532Z,26.84
2023-03-22T13:09:37.192Z,26.49
2023-03-22T13:12:17.077Z,27.21
2023-03-22T13:14:57.132Z,26.18
2023-03-22T13:17:25.313Z,26.93
2023-03-22T13:19:55.508Z,26.22
2023-03-22T13:22:26.342Z,27.50
2023-03-22T13:25:04.554Z,26.70
2023-03-22T13:27:50.974Z,26.57
2023-03-22T13:30:22.152Z,26.83
2023-03-22T13:32:55.331Z,28.00
2023-03-22T13:35:28.280Z,27.72
2023-03-22T13:38:02.339Z,27.37
2023-03-22T13:40:36.038Z,27.63
2023-03-22T13:43:12.639Z,26.66
2023-03-22T13:45:58.362Z,25.85
2023-03-22T13:48:34.265Z,27.54
2023-03-22T13:51:12.652Z,26.75
2023-03-22T13:53:44.059Z,26.87
2023-03-22T13:56:13.510Z,27.30
2023-03-22T13:58:41.440Z,26.52
2023-03-22T14:01:28.529Z,28.71
2023-03-22T14:04:01.552Z,27.50
2023-03-22T14:06:33.936Z,27.10
2023-03-22T14:09:12.193Z,27.30
2023-03-22T14:11:48.272Z,26.36
2023-03-22T14:14:19.471Z,27.25
2023-03-22T14:16:51.300Z,26.65
2023-03-22T14:19:25.989Z,26.54
